Flight Track Log - Related Links

Times and Time Zones

All times are in EDT time to prevent confusion due to time zone crossing. See the UAL1592 flight status page for this flight to view local times or setup timezone preferences in your user account.

Time Position Orientation Groundspeed Altitude Reporting Facility
EDT Latitude Longitude Course Direction KTS MPH feet Rate Location/Type
Mon 07:10:15 AM 40.6747 -74.1986 181° South  Level FlightAware Approximate
Mon 07:11:15 AM 40.6206 -74.3294 102° East  Level FlightAware Approximate
Mon 07:12:37 AM 40.6000 -74.2000 270° West 221 254 4,000  Level New York TRACON
Mon 07:13:32 AM 40.6000 -74.2667 270° West 222 255 5,000 1,842 Climbing New York TRACON
Mon 07:14:31 AM 40.6000 -74.3500 294° West 228 262 7,500 2,940 Climbing New York TRACON
Mon 07:16:52 AM 40.6564 -74.5186 279° West 237 273 14,800 2,358 Climbing New York Center
Mon 07:17:52 AM 40.6661 -74.6039 227° Southwest 242 278 15,400 793 Climbing New York Center
Mon 07:18:53 AM 40.6158 -74.6750 230° Southwest 236 272 16,400 1,770 Climbing New York Center
Mon 07:19:54 AM 40.5475 -74.7831 228° Southwest 322 371 19,000 2,723 Climbing New York Center
Mon 07:20:52 AM 40.4794 -74.8828 230° Southwest 363 418 21,800 2,542 Climbing New York Center
Mon 07:21:52 AM 40.4222 -74.9722 227° Southwest 372 428 24,000 2,132 Climbing New York Center
Mon 07:22:53 AM 40.3453 -75.0792 226° Southwest 378 435 26,100 1,815 Climbing New York Center
Mon 07:23:51 AM 40.2775 -75.1700 229° Southwest 383 441 27,600 1,686 Climbing New York Center
Mon 07:24:54 AM 40.2022 -75.2850 226° Southwest 383 441 29,500 1,537 Climbing New York Center
Mon 07:25:52 AM 40.1253 -75.3883 226° Southwest 388 447 30,700 1,271 Climbing New York Center
Mon 07:26:52 AM 40.0483 -75.4919 228° Southwest 394 453 32,000 1,350 Climbing New York Center
Mon 07:27:52 AM 39.9708 -75.6031 227° Southwest 401 461 33,400 1,400 Climbing New York Center
Mon 07:28:52 AM 39.8956 -75.7089 232° Southwest 406 467 34,800 1,240 Climbing New York Center
Mon 07:29:53 AM 39.8258 -75.8256 228° Southwest 406 467 35,900 1,033 Climbing New York Center
Mon 07:30:54 AM 39.7592 -75.9233 231° Southwest 412 474 36,900 1,008 Climbing New York Center
Mon 07:31:52 AM 39.6806 -76.0472 233° Southwest 414 476 37,900 559 Climbing New York Center
Mon 07:32:52 AM 39.6150 -76.1608 230° Southwest 407 468 38,000 40 Climbing New York Center
Mon 07:34:21 AM 39.5136 -76.3150 230° Southwest 402 463 38,000  Level Washington Center
Mon 07:35:21 AM 39.4397 -76.4272 230° Southwest 407 468 38,000  Level Washington Center
Mon 07:36:20 AM 39.3681 -76.5392 230° Southwest 407 468 38,000  Level Washington Center
Mon 07:37:20 AM 39.2964 -76.6508 231° Southwest 407 468 38,000  Level Washington Center
Mon 07:38:21 AM 39.2267 -76.7625 222° Southwest 407 468 38,000  Level Washington Center
Mon 07:39:22 AM 39.1422 -76.8600 223° Southwest 407 468 38,000  Level Washington Center
Mon 07:40:22 AM 39.0578 -76.9603 223° Southwest 407 468 38,000  Level Washington Center
Mon 07:41:20 AM 38.9733 -77.0600 221° Southwest 412 474 38,000  Level Washington Center
Mon 07:42:20 AM 38.8864 -77.1569 223° Southwest 417 480 38,000  Level Washington Center
Mon 07:43:21 AM 38.8019 -77.2564 222° Southwest 422 486 38,000  Level Washington Center
Mon 07:44:22 AM 38.7192 -77.3506 222° Southwest 416 479 38,000  Level Washington Center
Mon 07:45:22 AM 38.6344 -77.4467 222° Southwest 416 479 38,000  Level Washington Center
Mon 07:46:20 AM 38.5494 -77.5428 223° Southwest 410 472 38,000  Level Washington Center
Mon 07:47:21 AM 38.4686 -77.6389 222° Southwest 410 472 38,000  Level Washington Center
Mon 07:48:21 AM 38.3856 -77.7347 221° Southwest 405 466 38,000  Level Washington Center
Mon 07:49:21 AM 38.2983 -77.8300 222° Southwest 405 466 38,000  Level Washington Center
Mon 07:50:20 AM 38.2131 -77.9278 221° Southwest 405 466 38,000  Level Washington Center
Mon 07:51:21 AM 38.1256 -78.0253 221° Southwest 417 480 38,000  Level Washington Center
Mon 07:52:21 AM 38.0381 -78.1228 221° Southwest 423 487 38,000  Level Washington Center
Mon 07:53:22 AM 37.9442 -78.2250 217° Southwest 416 479 38,000  Level Washington Center
Mon 07:54:20 AM 37.8547 -78.3111 216° Southwest 416 479 38,000  Level Washington Center
Mon 07:55:22 AM 37.7608 -78.3972 217° Southwest 416 479 38,000  Level Washington Center
Mon 07:56:20 AM 37.6797 -78.4756 216° Southwest 416 479 38,000  Level Washington Center
Mon 07:57:20 AM 37.5903 -78.5586 216° Southwest 416 479 38,000  Level Washington Center
Mon 07:58:21 AM 37.4961 -78.6439 217° Southwest 416 479 38,000  Level Washington Center
Mon 07:59:22 AM 37.4064 -78.7292 216° Southwest 416 479 38,000  Level Washington Center
Mon 08:00:20 AM 37.3144 -78.8142 216° Southwest 416 479 38,000  Level Washington Center
Mon 08:01:21 AM 37.2097 -78.9089 216° Southwest 416 479 38,000  Level Washington Center
Mon 08:02:22 AM 37.1175 -78.9936 218° Southwest 416 479 38,000  Level Washington Center
Mon 08:03:20 AM 37.0275 -79.0806 218° Southwest 416 479 38,000  Level Washington Center
Mon 08:04:21 AM 36.9372 -79.1675 215° Southwest 416 479 38,000  Level Washington Center
Mon 08:05:21 AM 36.8450 -79.2489 216° Southwest 416 479 38,000  Level Washington Center
Mon 08:06:22 AM 36.7528 -79.3328 218° Southwest 416 479 38,000  Level Washington Center
Mon 08:07:21 AM 36.6731 -79.4092 216° Southwest 416 479 38,000  Level Washington Center
Mon 08:08:21 AM 36.5808 -79.4925 216° Southwest 416 479 38,000  Level Washington Center
Mon 08:09:22 AM 36.4883 -79.5758 216° Southwest 416 479 38,000  Level Washington Center
Mon 08:10:35 AM 36.3608 -79.6894 216° Southwest 403 464 38,000  Level Atlanta Center
Mon 08:11:35 AM 36.2658 -79.7744 216° Southwest 417 480 38,000  Level Atlanta Center
Mon 08:12:36 AM 36.1706 -79.8592 216° Southwest 422 486 38,000  Level Atlanta Center
Mon 08:13:35 AM 36.0875 -79.9328 209° Southwest 422 486 38,000  Level Atlanta Center
Mon 08:14:36 AM 35.9836 -80.0047 203° Southwest 422 486 38,000  Level Atlanta Center
Mon 08:15:35 AM 35.8750 -80.0614 201° Southwest 422 486 38,000  Level Atlanta Center
Mon 08:16:36 AM 35.7578 -80.1158 204° Southwest 436 502 38,000  Level Atlanta Center
Mon 08:17:35 AM 35.6328 -80.1831 202° Southwest 447 514 38,000  Level Atlanta Center
Mon 08:18:35 AM 35.5217 -80.2394 203° Southwest 447 514 38,000  Level Atlanta Center
Mon 08:19:35 AM 35.4067 -80.2981 202° Southwest 447 514 38,000  Level Atlanta Center
Mon 08:20:36 AM 35.3061 -80.3486 203° Southwest 447 514 38,000  Level Atlanta Center
Mon 08:21:35 AM 35.1931 -80.4069 201° Southwest 447 514 38,000  Level Atlanta Center
Mon 08:23:16 AM 35.0006 -80.4978 202° Southwest 438 504 38,000  Level Jacksonville Center
Mon 08:24:16 AM 34.8869 -80.5542 202° Southwest 444 511 38,000  Level Jacksonville Center
Mon 08:25:16 AM 34.7672 -80.6131 192° South 431 496 38,000  Level Jacksonville Center
Mon 08:26:16 AM 34.6489 -80.6439 185° South 431 496 38,000  Level Jacksonville Center
Mon 08:27:16 AM 34.5197 -80.6575 184° South 445 512 38,000  Level Jacksonville Center
Mon 08:28:16 AM 34.3947 -80.6681 184° South 451 519 38,000  Level Jacksonville Center
Mon 08:29:16 AM 34.2697 -80.6789 185° South 451 519 38,000  Level Jacksonville Center
Mon 08:30:16 AM 34.1428 -80.6922 184° South 461 531 38,000  Level Jacksonville Center
Mon 08:31:16 AM 34.0156 -80.7028 185° South 461 531 38,000  Level Jacksonville Center
Mon 08:32:16 AM 33.8864 -80.7161 185° South 461 531 38,000  Level Jacksonville Center
Mon 08:33:16 AM 33.7594 -80.7292 183° South 461 531 38,000  Level Jacksonville Center
Mon 08:34:16 AM 33.6406 -80.7372 185° South 461 531 38,000  Level Jacksonville Center
Mon 08:35:16 AM 33.5136 -80.7503 185° South 466 536 38,000  Level Jacksonville Center
Mon 08:36:16 AM 33.3822 -80.7633 188° South 466 536 38,000  Level Jacksonville Center
Mon 08:37:16 AM 33.2553 -80.7836 187° South 466 536 38,000  Level Jacksonville Center
Mon 08:38:16 AM 33.1261 -80.8017 188° South 466 536 38,000  Level Jacksonville Center
Mon 08:39:16 AM 32.9972 -80.8219 187° South 466 536 38,000  Level Jacksonville Center
Mon 08:40:16 AM 32.8700 -80.8397 187° South 466 536 38,000  Level Jacksonville Center
Mon 08:41:16 AM 32.7431 -80.8575 186° South 466 536 38,000  Level Jacksonville Center
Mon 08:42:16 AM 32.6158 -80.8725 188° South 466 536 38,000  Level Jacksonville Center
Mon 08:43:16 AM 32.4911 -80.8928 187° South 461 531 38,000  Level Jacksonville Center
Mon 08:44:16 AM 32.3556 -80.9128 186° South 448 516 38,000  Level Jacksonville Center
Mon 08:45:16 AM 32.2453 -80.9275 187° South 448 516 38,000  Level Jacksonville Center
Mon 08:46:16 AM 32.1078 -80.9475 187° South 448 516 38,000 -450 Level Jacksonville Center
Mon 08:47:16 AM 31.9806 -80.9650 187° South 461 531 37,100 -850 Descending Jacksonville Center
Mon 08:48:16 AM 31.8683 -80.9819 187° South 461 531 36,300 -650 Descending Jacksonville Center
Mon 08:49:16 AM 31.7286 -81.0019 186° South 466 536 35,800 -1,000 Descending Jacksonville Center
Mon 08:50:16 AM 31.6161 -81.0164 182° South 466 536 34,300 -1,650 Descending Jacksonville Center
Mon 08:51:16 AM 31.4764 -81.0217 182° South 466 536 32,500 -1,150 Descending Jacksonville Center
Mon 08:52:16 AM 31.3447 -81.0269 181° South 466 536 32,000 -250 Descending Jacksonville Center
Mon 08:53:16 AM 31.2236 -81.0292 183° South 473 544 32,000 -50 Level Jacksonville Center
Mon 08:54:16 AM 31.0903 -81.0367 182° South 478 550 31,900 -50 Descending Jacksonville Center
Mon 08:55:16 AM 30.9608 -81.0417 183° South 478 550 31,900 50 Level Jacksonville Center
Mon 08:56:16 AM 30.8336 -81.0489 182° South 473 544 32,000  Climbing Jacksonville Center
Mon 08:57:16 AM 30.7022 -81.0539 182° South 473 544 31,900  Descending Jacksonville Center
Mon 08:58:16 AM 30.5686 -81.0589 183° South 478 550 32,000 50 Climbing Jacksonville Center
Mon 08:59:16 AM 30.4392 -81.0664 182° South 473 544 32,000 -100 Level Jacksonville Center
Mon 09:00:16 AM 30.3078 -81.0711 183° South 473 544 31,800 -600 Descending Jacksonville Center
Mon 09:01:16 AM 30.1764 -81.0786 182° South 473 544 30,800 -1,000 Descending Jacksonville Center
Mon 09:02:16 AM 30.0428 -81.0833 183° South 473 544 29,800 -950 Descending Jacksonville Center
Mon 09:03:16 AM 29.9114 -81.0906 182° South 478 550 28,900 -1,650 Descending Jacksonville Center
Mon 09:04:16 AM 29.7800 -81.0956 182° South 478 550 26,500 -2,550 Descending Jacksonville Center
Mon 09:05:16 AM 29.6547 -81.1000 183° South 466 536 23,800 -2,650 Descending Jacksonville Center
Mon 09:06:16 AM 29.5317 -81.1072 181° South 453 521 21,200 -2,650 Descending Jacksonville Center
Mon 09:07:16 AM 29.4064 -81.1094 183° South 418 481 18,500 -2,500 Descending Jacksonville Center
Mon 09:08:16 AM 29.2917 -81.1164 174° South 412 474 16,200 -2,400 Descending Jacksonville Center
Mon 09:09:16 AM 29.1831 -81.1039 176° South 401 461 13,700 -1,900 Descending Jacksonville Center
Mon 09:10:16 AM 29.0764 -81.0964 174° South 389 448 12,400 -1,000 Descending Jacksonville Center
Mon 09:11:16 AM 28.9886 -81.0861 171° South 334 384 11,700 -1,200 Descending Jacksonville Center
Mon 09:12:16 AM 28.9050 -81.0711 187° South 313 360 10,000 -1,150 Descending Jacksonville Center
Mon 09:13:16 AM 28.8281 -81.0819 225° Southwest 302 348 9,400 -974 Descending Jacksonville Center
Mon 09:14:13 AM 28.7833 -81.1333 221° Southwest 254 292 8,100 -1,500 Descending Orlando TRACON
Mon 09:15:16 AM 28.7250 -81.1903 214° Southwest 255 293 6,400 -1,707 Descending Jacksonville Center
Mon 09:16:16 AM 28.6692 -81.2339 217° Southwest 255 293 4,600 -1,700 Descending Jacksonville Center
Mon 09:17:16 AM 28.6178 -81.2772 217° Southwest 249 287 3,000 -1,600 Descending Jacksonville Center

Login

Don't have an account? Register now (free) for customized features, flight alerts, and more!